createdAt,value
2022-08-14T00:02:24.464Z,96.70
2022-08-14T00:04:55.547Z,96.70
2022-08-14T00:07:23.647Z,96.70
2022-08-14T00:10:01.717Z,96.70
2022-08-14T00:12:53.473Z,96.70
2022-08-14T00:15:30.014Z,96.70
2022-08-14T00:18:14.689Z,96.70
2022-08-14T00:20:59.002Z,96.70
2022-08-14T00:23:27.209Z,96.70
2022-08-14T00:26:05.994Z,96.70
2022-08-14T00:28:36.094Z,96.70
2022-08-14T00:31:07.877Z,96.70
2022-08-14T00:33:49.219Z,96.70
2022-08-14T00:36:35.364Z,96.70
2022-08-14T00:39:09.517Z,96.70
2022-08-14T00:41:39.421Z,96.70
2022-08-14T00:44:11.001Z,96.70
2022-08-14T00:46:39.450Z,96.70
2022-08-14T00:49:11.529Z,96.70
2022-08-14T00:51:44.526Z,96.70
2022-08-14T00:54:21.516Z,96.70
2022-08-14T00:56:55.220Z,96.70
2022-08-14T00:59:25.191Z,96.70
2022-08-14T01:01:57.658Z,96.70
2022-08-14T01:04:51.351Z,96.70
2022-08-14T01:07:21.602Z,96.70
2022-08-14T01:09:51.493Z,96.70
2022-08-14T01:12:26.433Z,96.70
2022-08-14T01:14:58.128Z,96.70
2022-08-14T01:17:49.733Z,96.70
2022-08-14T01:20:49.437Z,96.70
2022-08-14T01:23:19.523Z,96.70
2022-08-14T01:25:51.073Z,96.70
2022-08-14T01:28:46.162Z,96.70
2022-08-14T01:31:12.571Z,96.70
2022-08-14T01:33:59.931Z,96.70
2022-08-14T01:36:39.267Z,96.70
2022-08-14T01:39:12.924Z,96.70
2022-08-14T01:41:43.227Z,96.70
2022-08-14T01:44:32.551Z,96.70
2022-08-14T01:47:21.587Z,96.70
2022-08-14T01:49:59.956Z,96.70
2022-08-14T01:52:58.975Z,96.70
2022-08-14T01:55:31.606Z,96.70
2022-08-14T01:58:19.427Z,96.70
2022-08-14T02:00:57.300Z,96.70
2022-08-14T02:03:29.837Z,96.70
2022-08-14T02:06:31.679Z,96.70
2022-08-14T02:08:53.068Z,96.70
2022-08-14T02:11:25.998Z,96.70
2022-08-14T02:13:58.741Z,96.70
2022-08-14T02:16:29.959Z,96.70
2022-08-14T02:19:00.008Z,96.70
2022-08-14T02:21:46.939Z,96.70
2022-08-14T02:24:39.553Z,96.70
2022-08-14T02:28:24.891Z,96.70
2022-08-14T02:30:00.840Z,96.70
2022-08-14T02:32:36.515Z,96.70
2022-08-14T02:35:14.017Z,96.70
2022-08-14T02:37:47.263Z,96.70
2022-08-14T02:40:18.835Z,96.70
2022-08-14T02:42:54.848Z,96.70
2022-08-14T02:45:33.016Z,96.70
2022-08-14T02:48:04.215Z,96.70
2022-08-14T02:50:33.738Z,96.70
2022-08-14T02:53:03.387Z,96.70
2022-08-14T02:55:33.414Z,96.70
2022-08-14T02:58:06.142Z,96.70
2022-08-14T03:00:39.908Z,96.70
2022-08-14T03:03:09.014Z,96.70
2022-08-14T03:05:41.175Z,96.70
2022-08-14T03:08:16.007Z,96.70
2022-08-14T03:10:48.980Z,96.70
2022-08-14T03:13:21.433Z,96.70
2022-08-14T03:15:56.226Z,96.70
2022-08-14T03:18:30.715Z,96.70
2022-08-14T03:21:03.027Z,96.70
2022-08-14T03:23:37.718Z,96.70
2022-08-14T03:26:12.581Z,96.70
2022-08-14T03:28:51.236Z,96.70
2022-08-14T03:31:26.011Z,96.70
2022-08-14T03:33:56.784Z,96.70
2022-08-14T03:37:39.531Z,96.70
2022-08-14T03:39:24.229Z,96.70
2022-08-14T03:41:55.309Z,96.70
2022-08-14T03:45:26.173Z,96.70
2022-08-14T03:47:15.437Z,96.70
2022-08-14T03:49:49.703Z,96.70
2022-08-14T03:52:38.617Z,96.70
2022-08-14T03:55:08.405Z,96.70
2022-08-14T03:57:37.729Z,96.70
2022-08-14T04:00:43.530Z,96.70
2022-08-14T04:03:02.785Z,96.70
2022-08-14T04:05:37.962Z,96.70
2022-08-14T04:08:23.009Z,96.70
2022-08-14T04:10:58.885Z,96.70
2022-08-14T04:13:27.794Z,96.70
2022-08-14T04:16:02.426Z,96.70
2022-08-14T04:18:34.164Z,96.70
2022-08-14T04:21:04.131Z,96.70
2022-08-14T04:23:33.882Z,96.70
2022-08-14T04:26:03.957Z,96.70
2022-08-14T04:29:07.370Z,96.70
2022-08-14T04:33:01.417Z,96.70
2022-08-14T04:34:17.053Z,96.70
2022-08-14T04:37:08.247Z,96.70
2022-08-14T04:39:57.126Z,96.70
2022-08-14T04:42:47.380Z,96.70
2022-08-14T04:45:23.698Z,96.70
2022-08-14T04:48:12.514Z,96.70
2022-08-14T04:50:44.679Z,96.70
2022-08-14T04:53:15.974Z,96.70
2022-08-14T04:55:48.635Z,96.70
2022-08-14T04:58:32.591Z,96.70
2022-08-14T05:01:04.447Z,96.70
2022-08-14T05:03:37.694Z,96.70
2022-08-14T05:06:07.685Z,96.70
2022-08-14T05:08:59.640Z,96.70
2022-08-14T05:11:34.613Z,96.70
2022-08-14T05:14:16.994Z,96.70
2022-08-14T05:16:54.346Z,96.70
2022-08-14T05:19:29.454Z,96.70
2022-08-14T05:22:16.549Z,96.70
2022-08-14T05:24:49.535Z,96.70
2022-08-14T05:27:23.337Z,96.70
2022-08-14T05:29:53.767Z,96.70
2022-08-14T05:32:27.177Z,96.70
2022-08-14T05:34:59.604Z,96.70
2022-08-14T05:37:30.336Z,96.70
2022-08-14T05:40:00.523Z,96.70
2022-08-14T05:42:32.003Z,96.70
2022-08-14T05:45:04.872Z,96.70
2022-08-14T05:47:39.751Z,96.70
2022-08-14T05:50:17.624Z,96.70
2022-08-14T05:52:49.095Z,96.70
2022-08-14T05:55:22.136Z,96.70
2022-08-14T05:57:53.982Z,96.70
2022-08-14T06:00:28.552Z,96.70
2022-08-14T06:03:00.270Z,96.70
2022-08-14T06:05:31.300Z,96.70
2022-08-14T06:08:00.108Z,96.70
2022-08-14T06:10:30.481Z,96.70
2022-08-14T06:13:02.455Z,96.70
2022-08-14T06:15:30.978Z,96.70
2022-08-14T06:18:00.442Z,96.70
2022-08-14T06:20:51.085Z,96.70
2022-08-14T06:23:19.495Z,96.70
2022-08-14T06:25:58.189Z,96.70
2022-08-14T06:28:28.307Z,96.70
2022-08-14T06:30:56.777Z,96.70
2022-08-14T06:35:01.346Z,96.70
2022-08-14T06:36:18.806Z,96.70
2022-08-14T06:38:50.344Z,96.70
2022-08-14T06:41:20.692Z,96.70
2022-08-14T06:43:49.297Z,96.70
2022-08-14T06:46:32.602Z,96.70
2022-08-14T06:49:03.036Z,96.70
2022-08-14T06:51:38.773Z,96.70
2022-08-14T06:54:12.865Z,96.70
2022-08-14T06:56:44.200Z,96.70
2022-08-14T06:59:19.601Z,96.70
2022-08-14T07:02:06.367Z,96.70
2022-08-14T07:04:59.989Z,96.70
2022-08-14T07:07:39.184Z,96.70
2022-08-14T07:10:13.411Z,96.70
2022-08-14T07:13:01.423Z,96.70
2022-08-14T07:15:33.690Z,96.70
2022-08-14T07:18:04.906Z,96.70
2022-08-14T07:20:37.444Z,96.70
2022-08-14T07:23:10.870Z,96.70
2022-08-14T07:25:42.204Z,96.70
2022-08-14T07:28:20.944Z,96.70
2022-08-14T07:30:51.049Z,96.70
2022-08-14T07:33:29.128Z,96.70
2022-08-14T07:35:59.453Z,96.70
2022-08-14T07:38:36.192Z,96.70
2022-08-14T07:41:07.046Z,96.70
2022-08-14T07:43:42.421Z,96.70
2022-08-14T07:46:10.450Z,96.70
2022-08-14T07:48:39.960Z,96.70
2022-08-14T07:51:11.270Z,96.70
2022-08-14T07:53:41.258Z,96.70
2022-08-14T07:56:43.674Z,96.70
2022-08-14T07:58:59.029Z,96.70
2022-08-14T08:01:31.121Z,96.70
2022-08-14T08:04:03.383Z,96.70
2022-08-14T08:06:32.058Z,96.70
2022-08-14T08:09:03.429Z,96.70
2022-08-14T08:11:34.559Z,96.70
2022-08-14T08:14:10.448Z,96.70
2022-08-14T08:16:38.524Z,96.70
2022-08-14T08:19:12.683Z,96.70
2022-08-14T08:21:43.606Z,96.70
2022-08-14T08:24:18.541Z,96.70
2022-08-14T08:26:50.640Z,96.70
2022-08-14T08:29:28.967Z,96.70
2022-08-14T08:32:01.820Z,96.70
2022-08-14T08:34:43.332Z,96.70
2022-08-14T08:37:11.238Z,96.70
2022-08-14T08:40:03.367Z,96.70
2022-08-14T08:42:41.176Z,96.70
2022-08-14T08:45:17.463Z,96.70
2022-08-14T08:47:46.543Z,96.70
2022-08-14T08:50:31.414Z,96.70
2022-08-14T08:53:02.082Z,96.70
2022-08-14T08:55:34.415Z,96.70
2022-08-14T08:58:05.639Z,96.70
2022-08-14T09:00:49.197Z,96.70
2022-08-14T09:03:20.702Z,96.70
2022-08-14T09:05:54.425Z,96.70
2022-08-14T09:08:30.720Z,96.70
2022-08-14T09:11:18.509Z,96.70
2022-08-14T09:13:51.001Z,96.70
2022-08-14T09:16:21.890Z,96.70
2022-08-14T09:18:53.292Z,96.20
2022-08-14T09:21:24.426Z,95.40
2022-08-14T09:24:28.893Z,94.70
2022-08-14T09:27:00.132Z,94.80
2022-08-14T09:29:30.327Z,92.60
2022-08-14T09:32:03.766Z,92.00
2022-08-14T09:35:03.817Z,91.20
2022-08-14T09:37:49.249Z,91.50
2022-08-14T09:40:43.315Z,90.00
2022-08-14T09:43:33.481Z,90.60
2022-08-14T09:46:07.404Z,90.40
2022-08-14T09:48:36.911Z,89.80
2022-08-14T09:54:18.611Z,88.80
2022-08-14T09:56:31.681Z,89.20
2022-08-14T09:59:16.060Z,88.60
2022-08-14T10:01:46.225Z,88.50
2022-08-14T10:04:34.625Z,88.70
2022-08-14T10:07:05.127Z,88.50
2022-08-14T10:09:34.931Z,88.20
2022-08-14T10:12:04.537Z,87.60
2022-08-14T10:14:36.889Z,87.90
2022-08-14T10:17:06.942Z,87.80
2022-08-14T10:19:36.549Z,87.50
2022-08-14T10:23:14.877Z,87.80
2022-08-14T10:25:00.514Z,87.10
2022-08-14T10:27:29.462Z,86.60
2022-08-14T10:30:04.800Z,87.00
2022-08-14T10:32:51.613Z,87.30
2022-08-14T10:35:22.453Z,85.40
2022-08-14T10:37:53.573Z,85.50
2022-08-14T10:40:37.531Z,84.30
2022-08-14T10:43:23.151Z,83.00
2022-08-14T10:46:03.296Z,83.40
2022-08-14T10:48:57.263Z,82.30
2022-08-14T10:51:26.629Z,81.00
2022-08-14T10:53:56.940Z,81.20
2022-08-14T10:56:34.115Z,81.40
2022-08-14T10:59:03.584Z,80.70
2022-08-14T11:01:40.945Z,80.90
2022-08-14T11:04:26.138Z,80.90
2022-08-14T11:06:57.013Z,80.10
2022-08-14T11:09:26.201Z,80.60
2022-08-14T11:12:33.928Z,79.80
2022-08-14T11:15:02.290Z,78.70
2022-08-14T11:17:33.225Z,79.20
2022-08-14T11:20:03.372Z,79.10
2022-08-14T11:22:55.888Z,77.50
2022-08-14T11:25:43.547Z,77.60
2022-08-14T11:28:19.185Z,77.30
2022-08-14T11:30:54.190Z,77.90
2022-08-14T11:33:25.130Z,78.00
2022-08-14T11:35:53.608Z,77.50
2022-08-14T11:38:29.390Z,76.50
2022-08-14T11:40:58.620Z,76.70
2022-08-14T11:43:29.097Z,74.20
2022-08-14T11:45:58.166Z,74.00
2022-08-14T11:49:03.195Z,74.50
2022-08-14T11:51:25.422Z,74.10
2022-08-14T11:54:03.291Z,73.80
2022-08-14T11:56:36.362Z,74.50
2022-08-14T11:59:06.511Z,72.40
2022-08-14T12:01:41.111Z,73.50
2022-08-14T12:04:32.774Z,73.30
2022-08-14T12:07:02.042Z,73.10
2022-08-14T12:09:31.862Z,74.10
2022-08-14T12:12:00.650Z,74.00
2022-08-14T12:14:35.981Z,75.20
2022-08-14T12:17:13.137Z,75.50
2022-08-14T12:19:54.205Z,75.60
2022-08-14T12:22:35.861Z,75.40
2022-08-14T12:25:11.045Z,75.00
2022-08-14T12:27:51.929Z,75.40
2022-08-14T12:30:39.455Z,76.40
2022-08-14T12:33:33.080Z,76.60
2022-08-14T12:36:08.200Z,76.40
2022-08-14T12:38:38.644Z,76.50
2022-08-14T12:41:16.474Z,76.20
2022-08-14T12:43:51.894Z,76.20
2022-08-14T12:46:27.549Z,77.70
2022-08-14T12:48:59.420Z,77.30
2022-08-14T12:51:30.754Z,77.70
2022-08-14T12:54:00.772Z,79.60
2022-08-14T12:56:32.715Z,80.30
2022-08-14T12:59:05.022Z,80.80
2022-08-14T13:01:59.391Z,80.60
2022-08-14T13:04:23.317Z,81.50
2022-08-14T13:06:53.197Z,82.30
2022-08-14T13:09:23.231Z,82.60
2022-08-14T13:11:58.301Z,82.40
2022-08-14T13:14:29.806Z,81.40
2022-08-14T13:16:58.864Z,82.40
2022-08-14T13:19:28.175Z,82.00
2022-08-14T13:22:09.739Z,82.10
2022-08-14T13:24:40.081Z,82.80
2022-08-14T13:27:10.091Z,83.60
2022-08-14T13:29:47.229Z,84.00
2022-08-14T13:32:16.093Z,84.40
2022-08-14T13:34:47.642Z,84.90
2022-08-14T13:37:18.077Z,85.30
2022-08-14T13:39:57.056Z,85.30
2022-08-14T13:42:30.655Z,85.00
2022-08-14T13:45:01.689Z,85.20
2022-08-14T13:47:31.355Z,84.90
2022-08-14T13:50:02.911Z,85.40
2022-08-14T13:52:51.679Z,85.30
2022-08-14T13:55:29.858Z,85.60
2022-08-14T13:58:03.449Z,86.00
2022-08-14T14:00:35.323Z,85.80
2022-08-14T14:03:08.729Z,85.50
2022-08-14T14:05:53.171Z,85.50
2022-08-14T14:08:45.733Z,85.20
2022-08-14T14:11:15.719Z,85.30
2022-08-14T14:13:46.361Z,84.80
2022-08-14T14:16:26.199Z,84.50
2022-08-14T14:19:09.346Z,83.70
2022-08-14T14:21:40.858Z,83.70
2022-08-14T14:24:15.068Z,83.20
2022-08-14T14:26:50.153Z,82.70
2022-08-14T14:29:26.104Z,82.00
2022-08-14T14:31:54.640Z,80.70
2022-08-14T14:34:29.540Z,80.30
2022-08-14T14:37:03.099Z,78.10
2022-08-14T14:39:37.608Z,77.50
2022-08-14T14:42:09.254Z,77.50
2022-08-14T14:44:42.462Z,76.80
2022-08-14T14:47:12.913Z,76.90
2022-08-14T14:49:55.134Z,76.20
2022-08-14T14:52:27.874Z,76.30
2022-08-14T14:54:59.153Z,76.50
2022-08-14T14:57:35.075Z,76.20
2022-08-14T15:00:08.806Z,76.20
2022-08-14T15:02:42.997Z,76.30
2022-08-14T15:05:14.406Z,76.20
2022-08-14T15:07:42.971Z,76.10
2022-08-14T15:10:27.716Z,75.40
2022-08-14T15:13:04.136Z,75.20
2022-08-14T15:15:33.349Z,75.10
2022-08-14T15:18:07.884Z,75.30
2022-08-14T15:20:55.192Z,75.20
2022-08-14T15:23:24.741Z,74.30
2022-08-14T15:26:01.773Z,74.80
2022-08-14T15:28:38.799Z,74.90
2022-08-14T15:31:07.163Z,75.20
2022-08-14T15:34:00.880Z,74.80
2022-08-14T15:36:48.902Z,75.50
2022-08-14T15:39:17.234Z,75.90
2022-08-14T15:41:46.662Z,75.70
2022-08-14T15:44:24.659Z,75.10
2022-08-14T15:46:54.115Z,75.40
2022-08-14T15:49:24.396Z,75.40
2022-08-14T15:51:59.666Z,75.20
2022-08-14T15:54:31.398Z,74.90
2022-08-14T15:57:04.911Z,75.20
2022-08-14T15:59:53.882Z,76.50
2022-08-14T16:02:24.600Z,78.30
2022-08-14T16:04:55.985Z,78.90
2022-08-14T16:07:27.351Z,79.00
2022-08-14T16:10:25.709Z,79.30
2022-08-14T16:12:47.639Z,80.40
2022-08-14T16:15:17.150Z,81.50
2022-08-14T16:17:45.719Z,82.00
2022-08-14T16:20:41.895Z,82.00
2022-08-14T16:23:10.417Z,82.20
2022-08-14T16:25:42.897Z,83.00
2022-08-14T16:28:27.171Z,83.20
2022-08-14T16:30:56.154Z,83.20
2022-08-14T16:33:28.091Z,83.50
2022-08-14T16:36:31.536Z,83.40
2022-08-14T16:39:02.193Z,82.70
2022-08-14T16:41:31.163Z,82.60
2022-08-14T16:44:04.633Z,82.90
2022-08-14T16:46:38.337Z,82.70
2022-08-14T16:49:14.070Z,82.80
2022-08-14T16:51:43.928Z,83.00
2022-08-14T16:54:35.003Z,83.70
2022-08-14T16:57:47.234Z,85.00
2022-08-14T17:00:43.149Z,85.80
2022-08-14T17:03:13.654Z,86.20
2022-08-14T17:05:47.052Z,85.60
2022-08-14T17:08:46.249Z,85.80
2022-08-14T17:11:23.860Z,85.90
2022-08-14T17:14:00.670Z,85.70
2022-08-14T17:16:37.407Z,85.10
2022-08-14T17:19:09.684Z,85.80
2022-08-14T17:21:47.429Z,85.50
2022-08-14T17:24:56.837Z,85.80
2022-08-14T17:27:08.015Z,86.70
2022-08-14T17:29:44.586Z,87.60
2022-08-14T17:32:30.121Z,88.00
2022-08-14T17:35:16.824Z,88.20
2022-08-14T17:37:55.582Z,88.50
2022-08-14T17:43:18.527Z,90.20
2022-08-14T17:45:47.271Z,90.80
2022-08-14T17:49:14.797Z,91.20
2022-08-14T17:51:24.110Z,91.80
2022-08-14T17:54:02.356Z,92.00
2022-08-14T17:56:33.160Z,92.20
2022-08-14T17:59:05.390Z,92.20
2022-08-14T18:01:38.631Z,92.20
2022-08-14T18:04:24.951Z,92.50
2022-08-14T18:07:16.387Z,92.40
2022-08-14T18:09:56.723Z,91.90
2022-08-14T18:12:37.180Z,91.60
2022-08-14T18:15:16.138Z,91.20
2022-08-14T18:17:52.485Z,91.30
2022-08-14T18:21:23.576Z,91.40
2022-08-14T18:23:14.474Z,92.20
2022-08-14T18:25:48.745Z,93.10
2022-08-14T18:28:51.897Z,93.60
2022-08-14T18:31:43.869Z,94.40
2022-08-14T18:34:32.411Z,95.10
2022-08-14T18:37:17.738Z,95.90
2022-08-14T18:40:03.541Z,96.70
2022-08-14T18:42:44.671Z,96.70
2022-08-14T18:45:28.694Z,96.70
2022-08-14T18:48:33.433Z,96.70
2022-08-14T18:51:19.200Z,96.70
2022-08-14T18:53:58.316Z,96.70
2022-08-14T18:56:59.258Z,96.70
2022-08-14T18:59:35.387Z,96.70
2022-08-14T19:02:42.792Z,96.70
2022-08-14T19:05:12.351Z,96.70
2022-08-14T19:07:41.226Z,96.70
2022-08-14T19:10:16.764Z,96.70
2022-08-14T19:13:12.039Z,96.70
2022-08-14T19:15:42.901Z,96.70
2022-08-14T19:18:26.493Z,96.70
2022-08-14T19:20:58.365Z,96.70
2022-08-14T19:23:42.669Z,96.70
2022-08-14T19:26:35.664Z,96.70
2022-08-14T19:29:41.420Z,96.70
2022-08-14T19:32:40.269Z,96.70
2022-08-14T19:35:55.178Z,96.70
2022-08-14T19:38:52.183Z,96.70
2022-08-14T19:41:29.235Z,96.70
2022-08-14T19:44:10.608Z,96.70
2022-08-14T19:47:01.056Z,96.70
2022-08-14T19:50:09.075Z,96.70
2022-08-14T19:52:22.594Z,96.70
2022-08-14T19:54:51.550Z,96.70
2022-08-14T19:57:22.827Z,96.70
2022-08-14T20:00:01.339Z,96.70
2022-08-14T20:02:42.051Z,96.70
2022-08-14T20:05:12.253Z,96.70
2022-08-14T20:08:00.149Z,96.70
2022-08-14T20:11:06.882Z,96.70
2022-08-14T20:13:32.517Z,96.70
2022-08-14T20:16:11.955Z,96.70
2022-08-14T20:18:51.977Z,96.70
2022-08-14T20:21:21.575Z,96.70
2022-08-14T20:23:52.570Z,96.70
2022-08-14T20:26:31.494Z,96.70
2022-08-14T20:29:05.384Z,96.70
2022-08-14T20:31:37.207Z,96.70
2022-08-14T20:34:25.047Z,96.70
2022-08-14T20:37:04.429Z,96.70
2022-08-14T20:39:33.995Z,96.70
2022-08-14T20:42:30.669Z,96.70
2022-08-14T20:45:21.385Z,96.70
2022-08-14T20:47:56.496Z,96.70
2022-08-14T20:50:29.689Z,96.70
2022-08-14T20:52:58.504Z,96.70
2022-08-14T20:55:29.542Z,96.70
2022-08-14T20:57:59.415Z,96.70
2022-08-14T21:00:37.542Z,96.70
2022-08-14T21:03:35.115Z,96.70
2022-08-14T21:06:28.641Z,96.70
2022-08-14T21:09:02.334Z,96.70
2022-08-14T21:11:30.764Z,96.70
2022-08-14T21:14:20.737Z,96.70
2022-08-14T21:16:58.292Z,96.70
2022-08-14T21:19:30.768Z,96.70
2022-08-14T21:22:02.165Z,96.70
2022-08-14T21:24:46.857Z,96.70
2022-08-14T21:27:22.671Z,96.70
2022-08-14T21:29:55.559Z,96.70
2022-08-14T21:32:50.571Z,96.70
2022-08-14T21:35:29.109Z,96.70
2022-08-14T21:37:58.112Z,96.70
2022-08-14T21:40:41.868Z,96.70
2022-08-14T21:43:18.055Z,96.70
2022-08-14T21:45:53.226Z,96.70
2022-08-14T21:48:25.224Z,96.70
2022-08-14T21:51:01.560Z,96.70
2022-08-14T21:53:58.304Z,96.70
2022-08-14T21:57:04.985Z,96.70
2022-08-14T21:59:44.745Z,96.70
2022-08-14T22:02:32.791Z,96.70
2022-08-14T22:05:03.380Z,96.70
2022-08-14T22:07:34.304Z,96.70
2022-08-14T22:10:05.069Z,96.70
2022-08-14T22:12:58.506Z,96.70
2022-08-14T22:15:23.389Z,96.70
2022-08-14T22:17:54.184Z,96.70
2022-08-14T22:20:23.111Z,96.70
2022-08-14T22:23:12.894Z,96.70
2022-08-14T22:25:44.377Z,96.70
2022-08-14T22:28:18.080Z,96.70
2022-08-14T22:30:47.496Z,96.70
2022-08-14T22:33:26.507Z,96.70
2022-08-14T22:36:00.272Z,96.70
2022-08-14T22:38:37.589Z,96.70
2022-08-14T22:41:25.447Z,96.70
2022-08-14T22:43:59.723Z,96.70
2022-08-14T22:46:28.081Z,96.70
2022-08-14T22:48:57.560Z,96.70
2022-08-14T22:51:27.689Z,96.70
2022-08-14T22:53:58.360Z,96.70
2022-08-14T22:56:29.409Z,96.70
2022-08-14T22:59:00.484Z,96.70
2022-08-14T23:01:56.024Z,96.70
2022-08-14T23:04:34.283Z,96.70
2022-08-14T23:07:07.477Z,96.70
2022-08-14T23:09:55.827Z,96.70
2022-08-14T23:12:29.648Z,96.70
2022-08-14T23:14:59.350Z,96.70
2022-08-14T23:17:38.737Z,96.70
2022-08-14T23:20:18.538Z,96.70
2022-08-14T23:22:51.126Z,96.70
2022-08-14T23:25:56.693Z,96.70
2022-08-14T23:28:34.675Z,96.70
2022-08-14T23:31:08.249Z,96.70
2022-08-14T23:33:42.016Z,96.70
2022-08-14T23:36:28.275Z,96.70
2022-08-14T23:38:56.665Z,96.70
2022-08-14T23:41:25.856Z,96.70
2022-08-14T23:44:14.040Z,96.70
2022-08-14T23:46:44.099Z,96.70
2022-08-14T23:49:12.609Z,96.70
2022-08-14T23:51:40.464Z,96.70
2022-08-14T23:54:49.166Z,96.70
2022-08-14T23:57:02.668Z,96.70
2022-08-14T23:59:32.082Z,96.70
